createdAt,value
2022-10-12T00:00:38.342Z,23.15
2022-10-12T00:03:06.082Z,18.38
2022-10-12T00:05:35.101Z,23.50
2022-10-12T00:08:02.762Z,22.23
2022-10-12T00:10:30.473Z,19.55
2022-10-12T00:12:58.202Z,13.98
2022-10-12T00:15:25.912Z,15.43
2022-10-12T00:17:54.025Z,15.15
2022-10-12T00:20:21.675Z,13.90
2022-10-12T00:22:50.702Z,13.10
2022-10-12T00:25:18.566Z,15.32
2022-10-12T00:27:46.827Z,12.73
2022-10-12T00:30:14.721Z,15.13
2022-10-12T00:32:42.375Z,17.10
2022-10-12T00:35:10.240Z,15.90
2022-10-12T00:37:38.237Z,18.73
2022-10-12T00:40:08.933Z,12.90
2022-10-12T00:42:36.638Z,16.42
2022-10-12T00:45:04.565Z,14.00
2022-10-12T00:47:34.857Z,11.90
2022-10-12T00:50:10.805Z,14.48
2022-10-12T00:52:43.914Z,16.35
2022-10-12T00:55:18.842Z,12.80
2022-10-12T00:57:47.606Z,13.35
2022-10-12T01:00:16.825Z,15.00
2022-10-12T01:02:45.056Z,10.63
2022-10-12T01:05:13.330Z,13.13
2022-10-12T01:07:41.659Z,12.82
2022-10-12T01:10:10.227Z,14.07
2022-10-12T01:12:41.816Z,15.60
2022-10-12T01:15:11.219Z,12.13
2022-10-12T01:17:45.999Z,14.40
2022-10-12T01:20:44.839Z,12.98
2022-10-12T01:23:32.959Z,9.93
2022-10-12T01:26:23.481Z,13.48
2022-10-12T01:28:59.951Z,13.25
2022-10-12T01:31:36.037Z,10.80
2022-10-12T01:34:10.806Z,10.98
2022-10-12T01:36:42.172Z,11.38
2022-10-12T01:39:16.805Z,13.48
2022-10-12T01:41:48.467Z,11.85
2022-10-12T01:44:22.241Z,10.43
2022-10-12T01:46:52.544Z,12.02
2022-10-12T01:49:24.127Z,14.07
2022-10-12T01:52:03.799Z,17.83
2022-10-12T01:54:43.298Z,13.50
2022-10-12T01:57:19.606Z,17.17
2022-10-12T01:59:56.304Z,20.70
2022-10-12T02:02:31.457Z,13.18
2022-10-12T02:05:04.640Z,11.98
2022-10-12T02:07:41.590Z,15.15
2022-10-12T02:10:15.817Z,15.52
2022-10-12T02:12:46.532Z,14.20
2022-10-12T02:15:15.744Z,12.75
2022-10-12T02:17:49.091Z,10.15
2022-10-12T02:20:19.353Z,13.07
2022-10-12T02:22:49.903Z,11.55
2022-10-12T02:25:21.535Z,21.83
2022-10-12T02:27:55.465Z,17.37
2022-10-12T02:30:23.203Z,17.50
2022-10-12T02:32:57.903Z,17.85
2022-10-12T02:35:30.959Z,14.25
2022-10-12T02:38:04.519Z,12.95
2022-10-12T02:40:38.011Z,11.82
2022-10-12T02:43:11.501Z,11.60
2022-10-12T02:45:43.178Z,14.10
2022-10-12T02:48:17.216Z,12.00
2022-10-12T02:50:45.955Z,15.95
2022-10-12T02:53:14.018Z,16.38
2022-10-12T02:55:48.821Z,18.95
2022-10-12T02:58:16.833Z,14.88
2022-10-12T03:00:44.557Z,15.05
2022-10-12T03:03:13.819Z,14.77
2022-10-12T03:05:41.521Z,10.82
2022-10-12T03:08:09.226Z,10.90
2022-10-12T03:10:36.934Z,12.43
2022-10-12T03:13:04.612Z,12.88
2022-10-12T03:15:32.407Z,12.10
2022-10-12T03:18:00.049Z,14.85
2022-10-12T03:20:29.360Z,15.65
2022-10-12T03:22:57.894Z,12.10
2022-10-12T03:25:25.656Z,13.43
2022-10-12T03:27:53.302Z,12.73
2022-10-12T03:30:21.077Z,18.75
2022-10-12T03:32:48.746Z,14.90
2022-10-12T03:35:16.606Z,14.43
2022-10-12T03:37:45.592Z,14.38
2022-10-12T03:40:13.989Z,10.98
2022-10-12T03:42:41.680Z,13.80
2022-10-12T03:45:10.282Z,15.23
2022-10-12T03:47:38.402Z,15.88
2022-10-12T03:50:07.401Z,14.82
2022-10-12T03:52:35.202Z,15.75
2022-10-12T03:55:04.703Z,19.08
2022-10-12T03:57:32.466Z,13.88
2022-10-12T04:00:00.141Z,22.15
2022-10-12T04:02:27.814Z,30.15
2022-10-12T04:04:55.426Z,15.55
2022-10-12T04:07:23.091Z,14.63
2022-10-12T04:09:50.787Z,14.77
2022-10-12T04:12:19.868Z,12.45
2022-10-12T04:14:47.521Z,13.50
2022-10-12T04:17:16.856Z,15.57
2022-10-12T04:19:44.570Z,14.55
2022-10-12T04:22:12.496Z,17.90
2022-10-12T04:24:40.165Z,15.95
2022-10-12T04:27:07.860Z,16.13
2022-10-12T04:29:37.137Z,13.25
2022-10-12T04:32:08.790Z,17.65
2022-10-12T04:34:39.339Z,18.70
2022-10-12T04:37:07.058Z,17.95
2022-10-12T04:39:34.764Z,16.88
2022-10-12T04:42:02.430Z,16.23
2022-10-12T04:44:32.359Z,19.08
2022-10-12T04:47:01.724Z,19.58
2022-10-12T04:49:29.420Z,16.48
2022-10-12T04:51:57.163Z,16.02
2022-10-12T04:54:24.917Z,18.02
2022-10-12T04:56:52.596Z,17.98
2022-10-12T04:59:20.267Z,15.38
2022-10-12T05:01:48.072Z,14.68
2022-10-12T05:04:17.287Z,15.30
2022-10-12T05:06:45.022Z,19.05
2022-10-12T05:09:16.025Z,18.67
2022-10-12T05:11:44.946Z,16.05
2022-10-12T05:14:12.821Z,17.42
2022-10-12T05:16:40.490Z,18.17
2022-10-12T05:19:08.290Z,14.00
2022-10-12T05:21:37.542Z,20.95
2022-10-12T05:24:05.638Z,14.45
2022-10-12T05:26:33.305Z,16.38
2022-10-12T05:29:01.126Z,18.15
2022-10-12T05:31:29.039Z,20.38
2022-10-12T05:33:56.671Z,15.35
2022-10-12T05:36:24.307Z,19.33
2022-10-12T05:38:53.347Z,22.27
2022-10-12T05:41:21.024Z,20.95
2022-10-12T05:43:48.860Z,19.08
2022-10-12T05:46:16.530Z,18.60
2022-10-12T05:48:44.312Z,18.25
2022-10-12T05:51:12.226Z,16.73
2022-10-12T05:53:39.897Z,16.73
2022-10-12T05:56:09.389Z,17.83
2022-10-12T05:58:37.088Z,21.42
2022-10-12T06:01:08.628Z,20.40
2022-10-12T06:03:36.622Z,11.98
2022-10-12T06:06:06.439Z,16.27
2022-10-12T06:08:35.186Z,18.67
2022-10-12T06:11:03.246Z,14.55
2022-10-12T06:13:32.378Z,13.13
2022-10-12T06:16:00.066Z,15.52
2022-10-12T06:18:27.767Z,16.10
2022-10-12T06:23:44.475Z,15.95
2022-10-12T06:26:12.185Z,15.02
2022-10-12T06:28:41.321Z,16.27
2022-10-12T06:31:09.099Z,20.33
2022-10-12T06:33:37.090Z,16.00
2022-10-12T06:36:04.964Z,16.38
2022-10-12T06:38:32.659Z,18.83
2022-10-12T06:41:00.388Z,15.77
2022-10-12T06:43:28.178Z,18.88
2022-10-12T06:46:00.703Z,15.52
2022-10-12T06:50:56.206Z,13.77
2022-10-12T06:53:25.482Z,18.83
2022-10-12T06:55:53.194Z,20.98
2022-10-12T06:58:20.882Z,20.98
2022-10-12T07:00:48.558Z,25.35
2022-10-12T07:03:17.767Z,21.88
2022-10-12T07:05:47.252Z,24.38
2022-10-12T07:08:15.051Z,31.30
2022-10-12T07:10:42.756Z,26.77
2022-10-12T07:13:10.422Z,23.80
2022-10-12T07:15:38.129Z,28.83
2022-10-12T07:18:05.876Z,30.15
2022-10-12T07:20:34.935Z,33.97
2022-10-12T07:23:02.601Z,30.90
2022-10-12T07:25:30.757Z,33.20
2022-10-12T07:27:58.457Z,32.85
2022-10-12T07:30:26.132Z,35.53
2022-10-12T07:32:55.334Z,28.10
2022-10-12T07:35:23.079Z,28.58
2022-10-12T07:37:52.132Z,30.40
2022-10-12T07:40:19.871Z,31.45
2022-10-12T07:43:11.895Z,35.95
2022-10-12T07:45:35.324Z,36.28
2022-10-12T07:48:03.060Z,32.55
2022-10-12T07:50:30.693Z,32.20
2022-10-12T07:53:00.115Z,51.38
2022-10-12T07:55:27.899Z,29.15
2022-10-12T07:57:55.594Z,31.15
2022-10-12T08:00:23.506Z,31.35
2022-10-12T08:02:51.254Z,30.63
2022-10-12T08:05:21.169Z,36.17
2022-10-12T08:07:49.642Z,29.30
2022-10-12T08:10:21.928Z,34.33
2022-10-12T08:12:52.169Z,41.70
2022-10-12T08:15:20.629Z,29.83
2022-10-12T08:17:48.407Z,27.77
2022-10-12T08:20:16.219Z,27.80
2022-10-12T08:22:43.897Z,26.17
2022-10-12T08:25:11.587Z,26.38
2022-10-12T08:27:40.800Z,29.42
2022-10-12T08:30:09.919Z,25.50
2022-10-12T08:32:37.794Z,27.10
2022-10-12T08:35:06.725Z,23.70
2022-10-12T08:37:34.520Z,18.15
2022-10-12T08:40:03.506Z,22.00
2022-10-12T08:42:41.622Z,25.77
2022-10-12T08:45:30.908Z,23.67
2022-10-12T08:48:03.410Z,19.05
2022-10-12T08:53:22.823Z,22.15
2022-10-12T08:55:52.583Z,20.50
2022-10-12T08:58:22.475Z,17.85
2022-10-12T09:00:56.239Z,24.42
2022-10-12T09:03:44.116Z,20.52
2022-10-12T09:06:15.193Z,19.77
2022-10-12T09:08:56.006Z,19.27
2022-10-12T09:11:51.634Z,14.73
2022-10-12T09:14:23.309Z,15.88
2022-10-12T09:16:56.388Z,18.57
2022-10-12T09:19:31.435Z,14.80
2022-10-12T09:21:59.231Z,16.45
2022-10-12T09:24:32.168Z,13.82
2022-10-12T09:27:01.554Z,14.95
2022-10-12T09:29:32.013Z,14.57
2022-10-12T09:32:27.856Z,13.60
2022-10-12T09:34:57.273Z,11.40
2022-10-12T09:37:28.513Z,12.20
2022-10-12T09:39:56.996Z,14.27
2022-10-12T09:42:24.695Z,15.93
2022-10-12T09:44:58.020Z,8.73
2022-10-12T09:47:29.546Z,13.07
2022-10-12T09:49:59.420Z,10.77
2022-10-12T09:52:30.852Z,10.00
2022-10-12T09:55:03.663Z,11.57
2022-10-12T09:57:36.897Z,9.23
2022-10-12T10:00:23.684Z,9.63
2022-10-12T10:02:53.924Z,11.85
2022-10-12T10:05:26.495Z,10.32
2022-10-12T10:10:29.388Z,9.10
2022-10-12T10:13:01.276Z,9.65
2022-10-12T10:15:31.503Z,10.02
2022-10-12T10:18:03.010Z,8.80
2022-10-12T10:20:34.261Z,12.45
2022-10-12T10:23:05.073Z,12.15
2022-10-12T10:25:34.003Z,10.32
2022-10-12T10:28:21.115Z,13.68
2022-10-12T10:30:57.564Z,10.68
2022-10-12T10:33:26.998Z,11.80
2022-10-12T10:36:01.565Z,9.25
2022-10-12T10:38:31.553Z,9.90
2022-10-12T10:41:07.807Z,8.30
2022-10-12T10:43:36.614Z,11.40
2022-10-12T10:46:05.565Z,10.35
2022-10-12T10:48:53.148Z,7.35
2022-10-12T10:51:21.187Z,9.40
2022-10-12T10:53:50.145Z,12.05
2022-10-12T10:56:22.823Z,11.40
2022-10-12T10:58:53.263Z,9.15
2022-10-12T11:01:25.998Z,9.32
2022-10-12T11:04:01.972Z,10.90
2022-10-12T11:06:36.302Z,10.43
2022-10-12T11:09:11.568Z,7.70
2022-10-12T11:11:41.291Z,12.77
2022-10-12T11:14:16.203Z,9.77
2022-10-12T11:16:52.544Z,10.63
2022-10-12T11:19:31.286Z,8.55
2022-10-12T11:22:03.892Z,11.23
2022-10-12T11:24:37.318Z,7.55
2022-10-12T11:27:11.589Z,7.35
2022-10-12T11:29:40.049Z,14.05
2022-10-12T11:32:14.919Z,9.70
2022-10-12T11:34:50.705Z,11.50
2022-10-12T11:37:21.927Z,9.73
2022-10-12T11:39:53.614Z,7.72
2022-10-12T11:42:29.677Z,10.48
2022-10-12T11:45:00.284Z,11.35
2022-10-12T11:47:35.644Z,10.40
2022-10-12T11:50:08.593Z,18.60
2022-10-12T11:52:41.902Z,13.45
2022-10-12T11:55:27.994Z,11.35
2022-10-12T11:57:59.700Z,10.15
2022-10-12T12:00:36.318Z,12.02
2022-10-12T12:03:17.468Z,23.85
2022-10-12T12:05:46.512Z,13.73
2022-10-12T12:08:23.170Z,12.57
2022-10-12T12:11:05.424Z,13.90
2022-10-12T12:13:33.277Z,10.35
2022-10-12T12:16:34.860Z,14.10
2022-10-12T12:19:29.239Z,15.70
2022-10-12T12:22:18.105Z,15.93
2022-10-12T12:24:54.779Z,14.05
2022-10-12T12:27:29.594Z,12.52
2022-10-12T12:29:58.225Z,12.07
2022-10-12T12:32:27.931Z,16.98
2022-10-12T12:35:00.669Z,12.50
2022-10-12T12:37:34.923Z,16.73
2022-10-12T12:40:05.473Z,10.27
2022-10-12T12:42:34.281Z,14.68
2022-10-12T12:45:42.450Z,14.25
2022-10-12T12:48:11.600Z,12.52
2022-10-12T12:50:41.657Z,12.80
2022-10-12T12:53:15.618Z,15.95
2022-10-12T12:56:03.731Z,13.68
2022-10-12T12:59:06.779Z,47.70
2022-10-12T13:04:35.631Z,12.45
2022-10-12T13:07:25.139Z,12.63
2022-10-12T13:10:09.096Z,13.35
2022-10-12T13:12:59.070Z,9.75
2022-10-12T13:15:43.787Z,9.68
2022-10-12T13:18:52.968Z,12.15
2022-10-12T13:21:25.923Z,9.32
2022-10-12T13:24:02.205Z,11.10
2022-10-12T13:26:32.127Z,7.20
2022-10-12T13:29:02.366Z,9.38
2022-10-12T13:31:36.964Z,8.77
2022-10-12T13:34:13.299Z,11.38
2022-10-12T13:36:53.957Z,10.27
2022-10-12T13:39:23.313Z,9.35
2022-10-12T13:41:54.579Z,9.85
2022-10-12T13:44:26.354Z,11.43
2022-10-12T13:46:56.620Z,13.65
2022-10-12T13:49:26.486Z,11.25
2022-10-12T13:51:57.669Z,15.77
2022-10-12T13:54:26.680Z,16.08
2022-10-12T13:56:57.811Z,13.30
2022-10-12T13:59:27.798Z,15.82
2022-10-12T14:01:57.952Z,14.45
2022-10-12T14:04:30.124Z,22.17
2022-10-12T14:07:02.223Z,12.70
2022-10-12T14:09:40.354Z,17.25
2022-10-12T14:12:09.610Z,15.13
2022-10-12T14:14:39.723Z,11.68
2022-10-12T14:17:07.862Z,12.25
2022-10-12T14:19:44.999Z,12.38
2022-10-12T14:22:21.523Z,12.32
2022-10-12T14:24:49.693Z,11.38
2022-10-12T14:27:24.937Z,14.52
2022-10-12T14:29:57.295Z,14.30
2022-10-12T14:32:44.186Z,13.20
2022-10-12T14:35:25.535Z,7.93
2022-10-12T14:37:56.596Z,12.38
2022-10-12T14:40:34.547Z,14.10
2022-10-12T14:43:05.745Z,12.55
2022-10-12T14:45:34.798Z,11.23
2022-10-12T14:48:03.312Z,13.85
2022-10-12T14:50:32.909Z,10.25
2022-10-12T14:53:07.406Z,8.27
2022-10-12T14:55:35.648Z,14.20
2022-10-12T14:58:03.634Z,13.95
2022-10-12T15:00:33.178Z,20.92
2022-10-12T15:03:01.858Z,11.65
2022-10-12T15:05:31.751Z,14.38
2022-10-12T15:08:00.543Z,11.10
2022-10-12T15:10:30.061Z,12.07
2022-10-12T15:12:57.940Z,10.25
2022-10-12T15:15:34.248Z,9.82
2022-10-12T15:18:02.561Z,10.95
2022-10-12T15:20:32.235Z,10.30
2022-10-12T15:23:00.797Z,10.68
2022-10-12T15:25:40.370Z,11.43
2022-10-12T15:28:08.143Z,7.63
2022-10-12T15:30:47.493Z,11.25
2022-10-12T15:33:20.102Z,11.05
2022-10-12T15:35:47.820Z,11.73
2022-10-12T15:38:15.511Z,10.52
2022-10-12T15:40:46.039Z,11.05
2022-10-12T15:43:14.179Z,10.57
2022-10-12T15:45:42.330Z,8.35
2022-10-12T15:48:11.098Z,11.10
2022-10-12T15:50:41.811Z,12.50
2022-10-12T15:53:11.422Z,35.67
2022-10-12T15:55:39.265Z,24.75
2022-10-12T15:58:08.388Z,12.32
2022-10-12T16:00:36.189Z,10.05
2022-10-12T16:03:04.015Z,12.13
2022-10-12T16:05:33.631Z,13.18
2022-10-12T16:08:02.500Z,9.10
2022-10-12T16:10:32.254Z,10.70
2022-10-12T16:12:59.936Z,11.82
2022-10-12T16:15:32.043Z,12.13
2022-10-12T16:18:00.330Z,14.85
2022-10-12T16:20:29.865Z,10.68
2022-10-12T16:22:57.761Z,13.00
2022-10-12T16:25:26.322Z,13.32
2022-10-12T16:27:58.265Z,10.63
2022-10-12T16:30:27.191Z,13.63
2022-10-12T16:32:56.275Z,13.95
2022-10-12T16:35:24.195Z,13.63
2022-10-12T16:37:51.851Z,15.00
2022-10-12T16:40:19.832Z,26.60
2022-10-12T16:42:54.254Z,14.70
2022-10-12T16:45:25.596Z,14.10
2022-10-12T16:47:54.018Z,28.65
2022-10-12T16:50:25.041Z,34.28
2022-10-12T16:52:53.231Z,12.05
2022-10-12T16:55:21.653Z,23.90
2022-10-12T16:57:49.313Z,22.42
2022-10-12T17:00:20.107Z,17.23
2022-10-12T17:02:48.047Z,16.48
2022-10-12T17:05:16.030Z,19.48
2022-10-12T17:07:45.018Z,16.17
2022-10-12T17:10:12.674Z,15.82
2022-10-12T17:12:40.306Z,42.10
2022-10-12T17:15:09.090Z,28.42
2022-10-12T17:17:36.803Z,18.10
2022-10-12T17:20:04.908Z,15.23
2022-10-12T17:22:32.550Z,15.43
2022-10-12T17:25:01.637Z,11.10
2022-10-12T17:27:32.096Z,11.52
2022-10-12T17:30:00.402Z,14.75
2022-10-12T17:32:28.130Z,14.80
2022-10-12T17:34:55.786Z,16.45
2022-10-12T17:37:25.564Z,14.35
2022-10-12T17:39:53.352Z,16.15
2022-10-12T17:42:23.083Z,17.98
2022-10-12T17:44:50.759Z,17.70
2022-10-12T17:47:18.684Z,19.60
2022-10-12T17:49:49.069Z,24.08
2022-10-12T17:52:17.090Z,24.45
2022-10-12T17:54:45.167Z,19.20
2022-10-12T17:57:12.792Z,16.27
2022-10-12T17:59:46.027Z,14.93
2022-10-12T18:02:13.638Z,15.25
2022-10-12T18:04:41.352Z,15.07
2022-10-12T18:07:09.119Z,16.52
2022-10-12T18:09:36.856Z,20.00
2022-10-12T18:12:04.662Z,19.45
2022-10-12T18:14:32.364Z,18.65
2022-10-12T18:17:01.450Z,15.52
2022-10-12T18:19:29.094Z,17.08
2022-10-12T18:21:56.689Z,15.15
2022-10-12T18:24:25.028Z,20.35
2022-10-12T18:26:52.785Z,15.52
2022-10-12T18:29:20.935Z,22.58
2022-10-12T18:31:48.708Z,16.23
2022-10-12T18:34:17.688Z,17.23
2022-10-12T18:36:45.308Z,16.35
2022-10-12T18:39:12.961Z,17.90
2022-10-12T18:41:40.668Z,16.77
2022-10-12T18:44:09.093Z,21.27
2022-10-12T18:46:37.510Z,16.75
2022-10-12T18:49:08.106Z,17.30
2022-10-12T18:51:39.133Z,22.63
2022-10-12T18:54:07.770Z,19.95
2022-10-12T18:56:36.898Z,18.73
2022-10-12T18:59:05.070Z,20.15
2022-10-12T19:01:33.377Z,19.08
2022-10-12T19:04:03.200Z,18.73
2022-10-12T19:06:32.917Z,22.80
2022-10-12T19:09:02.281Z,27.65
2022-10-12T19:11:31.015Z,22.75
2022-10-12T19:14:00.462Z,23.95
2022-10-12T19:16:29.814Z,20.92
2022-10-12T19:18:58.692Z,26.13
2022-10-12T19:21:26.506Z,24.63
2022-10-12T19:23:54.397Z,20.58
2022-10-12T19:26:25.414Z,24.90
2022-10-12T19:28:55.250Z,20.55
2022-10-12T19:31:24.894Z,23.42
2022-10-12T19:33:55.088Z,24.05
2022-10-12T19:36:22.695Z,20.38
2022-10-12T19:38:50.498Z,80.35
2022-10-12T19:41:18.257Z,68.90
2022-10-12T19:43:47.301Z,41.85
2022-10-12T19:46:15.137Z,40.20
2022-10-12T19:48:43.218Z,41.08
2022-10-12T19:51:13.326Z,32.50
2022-10-12T19:53:42.160Z,30.05
2022-10-12T19:56:13.698Z,38.70
2022-10-12T19:58:43.204Z,32.28
2022-10-12T20:01:14.947Z,35.67
2022-10-12T20:03:47.573Z,34.50
2022-10-12T20:06:15.821Z,35.40
2022-10-12T20:08:45.490Z,29.48
2022-10-12T20:11:24.555Z,32.25
2022-10-12T20:13:53.155Z,33.63
2022-10-12T20:16:22.863Z,32.00
2022-10-12T20:18:51.229Z,30.63
2022-10-12T20:21:21.360Z,30.65
2022-10-12T20:23:49.897Z,29.45
2022-10-12T20:26:20.505Z,30.00
2022-10-12T20:28:48.694Z,29.70
2022-10-12T20:31:18.501Z,29.88
2022-10-12T20:33:53.088Z,31.58
2022-10-12T20:36:23.181Z,33.50
2022-10-12T20:38:52.544Z,34.28
2022-10-12T20:41:34.922Z,32.40
2022-10-12T20:44:02.843Z,26.33
2022-10-12T20:46:31.088Z,27.92
2022-10-12T20:49:02.181Z,30.90
2022-10-12T20:51:32.584Z,28.90
2022-10-12T20:54:01.420Z,30.88
2022-10-12T20:56:30.031Z,23.80
2022-10-12T20:58:57.730Z,32.05
2022-10-12T21:01:26.370Z,27.55
2022-10-12T21:03:54.368Z,32.75
2022-10-12T21:06:24.032Z,22.45
2022-10-12T21:08:52.772Z,29.85
2022-10-12T21:11:20.563Z,28.08
2022-10-12T21:13:48.200Z,29.52
2022-10-12T21:16:16.038Z,27.65
2022-10-12T21:18:44.030Z,28.98
2022-10-12T21:21:13.774Z,34.33
2022-10-12T21:23:43.718Z,26.80
2022-10-12T21:26:13.118Z,27.90
2022-10-12T21:28:41.111Z,27.77
2022-10-12T21:31:08.913Z,24.70
2022-10-12T21:33:37.651Z,26.42
2022-10-12T21:36:09.631Z,26.90
2022-10-12T21:38:37.300Z,29.48
2022-10-12T21:41:07.796Z,32.38
2022-10-12T21:43:36.247Z,23.90
2022-10-12T21:46:04.890Z,22.63
2022-10-12T21:48:33.906Z,25.30
2022-10-12T21:51:02.671Z,27.73
2022-10-12T21:53:31.146Z,26.13
2022-10-12T21:55:59.096Z,30.33
2022-10-12T21:58:28.165Z,28.73
2022-10-12T22:01:05.110Z,26.02
2022-10-12T22:03:32.830Z,27.35
2022-10-12T22:06:00.466Z,26.85
2022-10-12T22:08:28.265Z,24.85
2022-10-12T22:10:56.746Z,29.15
2022-10-12T22:13:24.620Z,28.30
2022-10-12T22:16:02.993Z,21.50
2022-10-12T22:18:30.682Z,24.90
2022-10-12T22:20:58.575Z,27.75
2022-10-12T22:23:26.267Z,23.17
2022-10-12T22:25:53.915Z,21.67
2022-10-12T22:28:21.647Z,22.80
2022-10-12T22:30:49.303Z,33.38
2022-10-12T22:33:18.353Z,25.85
2022-10-12T22:35:53.501Z,25.23
2022-10-12T22:38:21.204Z,26.13
2022-10-12T22:40:55.700Z,27.35
2022-10-12T22:43:23.492Z,22.40
2022-10-12T22:45:51.558Z,22.67
2022-10-12T22:48:20.920Z,22.65
2022-10-12T22:50:49.649Z,25.90
2022-10-12T22:53:18.848Z,25.17
2022-10-12T22:55:46.910Z,23.67
2022-10-12T22:58:14.622Z,26.63
2022-10-12T23:00:42.728Z,26.65
2022-10-12T23:03:10.470Z,22.65
2022-10-12T23:05:39.506Z,25.83
2022-10-12T23:08:07.168Z,28.08
2022-10-12T23:10:34.840Z,28.30
2022-10-12T23:13:02.546Z,27.60
2022-10-12T23:15:30.235Z,31.75
2022-10-12T23:17:59.272Z,29.85
2022-10-12T23:20:26.997Z,30.30
2022-10-12T23:22:56.026Z,32.75
2022-10-12T23:25:23.771Z,30.67
2022-10-12T23:27:51.435Z,25.75
2022-10-12T23:30:19.082Z,26.02
2022-10-12T23:32:46.777Z,22.67
2022-10-12T23:35:14.480Z,29.20
2022-10-12T23:37:44.257Z,23.48
2022-10-12T23:40:13.831Z,24.98
2022-10-12T23:42:41.537Z,25.73
2022-10-12T23:45:09.684Z,27.27
2022-10-12T23:47:37.382Z,25.02
2022-10-12T23:50:05.483Z,28.95
2022-10-12T23:52:33.109Z,30.75
2022-10-12T23:55:00.789Z,29.58
2022-10-12T23:57:46.169Z,33.25
